Time;durP1;ratioP1;P1;durP2;ratioP2;P2;SDS_P1;SDS_P2;PMS_P1;PMS_P2;Temp;Humidity;BMP_temperature;BMP_pressure;BME280_temperature;BME280_humidity;BME280_pressure;Samples;Min_cycle;Max_cycle;Signal;HPM_P1;HPM_P2
2023/02/09 07:42:30;;;;;;;8.68;3.58;;;;;;;2.00;100.00;103077.84;5080184;27;20424;-73
2023/02/09 07:44:55;;;;;;;8.07;2.80;;;;;;;2.15;100.00;103078.53;5068561;28;20040;-73
2023/02/09 07:47:21;;;;;;;8.70;2.95;;;;;;;2.29;100.00;103084.03;5055420;28;20033;-71
2023/02/09 07:49:47;;;;;;;12.32;4.07;;;;;;;2.70;100.00;103082.09;5062218;28;20082;-73
2023/02/09 07:52:12;;;;;;;6.97;3.13;;;;;;;2.84;100.00;103079.44;5069574;28;20372;-73
2023/02/09 07:54:38;;;;;;;10.02;3.72;;;;;;;2.95;100.00;103081.53;5068961;28;20107;-73
2023/02/09 07:57:03;;;;;;;18.48;3.95;;;;;;;3.01;100.00;103088.81;5069359;28;20033;-73
2023/02/09 07:59:29;;;;;;;11.25;3.70;;;;;;;3.07;100.00;103085.28;5069400;28;20475;-74
2023/02/09 08:01:54;;;;;;;8.75;3.35;;;;;;;3.13;100.00;103097.97;5069312;28;20036;-72
2023/02/09 08:04:20;;;;;;;8.02;3.45;;;;;;;3.14;100.00;103090.69;5067736;28;20037;-73
2023/02/09 08:06:46;;;;;;;10.07;3.55;;;;;;;3.18;100.00;103092.81;5069231;28;20033;-74
2023/02/09 08:09:15;;;;;;;11.05;7.35;;;;;;;3.20;100.00;103096.13;5069249;28;20078;-72
2023/02/09 08:11:54;;;;;;;8.77;6.47;;;;;;;3.20;100.00;103112.34;5068666;28;20158;-72
2023/02/09 08:14:28;;;;;;;8.13;5.38;;;;;;;3.23;100.00;103102.97;5068545;28;20102;-74
2023/02/09 08:17:18;;;;;;;10.95;5.47;;;;;;;3.20;100.00;103112.34;5056047;28;20036;-74
2023/02/09 08:19:47;;;;;;;8.23;5.63;;;;;;;3.27;100.00;103125.84;5062894;28;20094;-73
2023/02/09 08:22:13;;;;;;;8.98;5.97;;;;;;;3.27;100.00;103113.16;5067401;28;20028;-74
2023/02/09 08:24:39;;;;;;;8.82;5.55;;;;;;;3.30;100.00;103109.22;5068768;28;20036;-74
2023/02/09 08:27:04;;;;;;;15.02;8.35;;;;;;;3.36;100.00;103119.22;5067533;28;20037;-74
2023/02/09 08:29:30;;;;;;;11.52;7.55;;;;;;;3.42;100.00;103123.78;5061633;28;20053;-73
2023/02/09 08:31:56;;;;;;;11.80;7.03;;;;;;;3.45;100.00;103127.94;5066063;28;20036;-73
2023/02/09 08:34:22;;;;;;;10.82;6.30;;;;;;;3.52;100.00;103128.78;5066751;28;20021;-73
2023/02/09 08:36:47;;;;;;;11.15;5.88;;;;;;;3.54;100.00;103134.81;5066531;28;20029;-73
2023/02/09 08:39:13;;;;;;;8.60;6.20;;;;;;;3.60;100.00;103136.69;5065574;28;20021;-72
2023/02/09 08:41:38;;;;;;;11.57;7.47;;;;;;;3.73;100.00;103133.97;5067028;28;20055;-73
2023/02/09 08:44:04;;;;;;;9.68;4.70;;;;;;;3.94;100.00;103142.91;5067468;28;20035;-72
2023/02/09 08:46:29;;;;;;;9.57;5.28;;;;;;;3.73;100.00;103128.56;5067320;28;20468;-73
2023/02/09 08:48:55;;;;;;;20.33;9.68;;;;;;;3.74;100.00;103149.16;5067739;28;20032;-73
2023/02/09 08:51:20;;;;;;;11.25;10.05;;;;;;;3.78;100.00;103146.84;5067079;28;20036;-73
2023/02/09 08:53:50;;;;;;;16.55;8.60;;;;;;;3.58;100.00;103147.69;5054277;28;20094;-72
2023/02/09 08:56:17;;;;;;;11.52;10.38;;;;;;;3.74;100.00;103149.16;5055233;28;20027;-73
2023/02/09 08:58:43;;;;;;;10.55;9.55;;;;;;;3.87;100.00;103142.91;5053817;28;20087;-73
2023/02/09 09:01:09;;;;;;;20.23;18.25;;;;;;;4.01;100.00;103149.16;5054936;28;20025;-74
2023/02/09 09:03:35;;;;;;;19.83;18.20;;;;;;;4.08;100.00;103139.13;5053753;28;20071;-73
2023/02/09 09:06:03;;;;;;;21.33;18.98;;;;;;;4.37;100.00;103141.34;5053684;28;20032;-74
2023/02/09 09:08:32;;;;;;;24.50;22.00;;;;;;;4.45;100.00;103137.56;5054844;28;20044;-73
2023/02/09 09:10:58;;;;;;;30.60;28.25;;;;;;;4.48;100.00;103141.75;5055007;28;20502;-74
2023/02/09 09:13:24;;;;;;;61.60;34.30;;;;;;;4.39;100.00;103142.00;5054797;28;20029;-73
2023/02/09 09:15:51;;;;;;;33.95;31.38;;;;;;;4.44;100.00;103154.88;5053546;28;20391;-74
2023/02/09 09:18:17;;;;;;;38.63;36.10;;;;;;;4.48;100.00;103153.41;5054783;28;20553;-74
2023/02/09 09:20:43;;;;;;;38.45;35.40;;;;;;;4.60;100.00;103158.97;5054639;28;20087;-73
2023/02/09 09:23:08;;;;;;;112.68;102.00;;;;;;;4.76;100.00;103152.25;5053352;28;20025;-74
2023/02/09 09:25:34;;;;;;;99.78;91.25;;;;;;;4.90;100.00;103153.84;5051111;28;20024;-75
2023/02/09 09:28:00;;;;;;;110.38;100.78;;;;;;;5.03;100.00;103150.25;5053842;28;20024;-74
2023/02/09 09:30:26;;;;;;;101.13;92.95;;;;;;;5.10;100.00;103153.75;5054534;28;20434;-75
2023/02/09 09:32:51;;;;;;;68.65;63.97;;;;;;;5.26;100.00;103154.06;5054544;28;20055;-75
2023/02/09 09:35:17;;;;;;;98.72;91.38;;;;;;;5.30;100.00;103165.31;5053067;28;20025;-75
2023/02/09 09:37:42;;;;;;;72.53;68.28;;;;;;;5.45;100.00;103163.13;5054426;28;20029;-75
2023/02/09 09:40:17;;;;;;;73.85;68.88;;;;;;;5.51;100.00;103170.34;5052680;28;20029;-75
2023/02/09 09:42:47;;;;;;;58.75;54.90;;;;;;;5.69;100.00;103174.22;5054369;28;20486;-75
2023/02/09 09:45:17;;;;;;;66.78;62.22;;;;;;;5.78;100.00;103173.72;5054171;28;20028;-75
2023/02/09 09:47:43;;;;;;;60.78;56.67;;;;;;;5.66;100.00;103185.47;5054246;28;20025;-75
2023/02/09 09:50:17;;;;;;;56.83;53.13;;;;;;;5.66;100.00;103190.91;5054102;28;20067;-75
2023/02/09 09:53:06;;;;;;;57.88;54.55;;;;;;;5.66;100.00;103188.19;5052753;28;20472;-74
2023/02/09 09:55:33;;;;;;;55.42;52.28;;;;;;;5.55;100.00;103181.63;5053755;28;20021;-74
2023/02/09 09:58:04;;;;;;;56.80;53.28;;;;;;;5.67;100.00;103184.44;5054361;28;20061;-75
2023/02/09 10:00:39;;;;;;;60.05;56.28;;;;;;;5.96;100.00;103189.22;5054160;28;20041;-75
2023/02/09 10:03:15;;;;;;;59.28;55.72;;;;;;;6.27;100.00;103182.03;5053922;28;20063;-75
2023/02/09 10:05:42;;;;;;;58.00;54.67;;;;;;;6.51;100.00;103183.91;5051882;28;20029;-74
2023/02/09 10:08:38;;;;;;;58.20;54.70;;;;;;;6.56;100.00;103191.34;5050271;28;20404;-73
2023/02/09 10:11:12;;;;;;;58.42;54.47;;;;;;;6.54;100.00;103188.88;5049577;28;20048;-73
2023/02/09 10:13:53;;;;;;;54.90;51.55;;;;;;;6.37;100.00;103187.81;5052424;28;20537;-73
2023/02/09 10:16:27;;;;;;;56.30;52.72;;;;;;;6.30;100.00;103192.47;5051645;28;20551;-73
2023/02/09 10:18:53;;;;;;;60.75;57.22;;;;;;;6.39;100.00;103169.41;5051626;28;20510;-73
2023/02/09 10:21:21;;;;;;;65.40;61.03;;;;;;;6.41;100.00;103208.00;5046278;28;20041;-75
2023/02/09 10:23:50;;;;;;;66.57;62.55;;;;;;;6.68;100.00;103201.25;5042212;28;20060;-75
2023/02/09 10:26:21;;;;;;;62.28;57.97;;;;;;;6.75;100.00;103195.72;5033611;28;20021;-74
2023/02/09 10:28:49;;;;;;;63.95;60.22;;;;;;;6.89;100.00;103194.50;5051790;28;20043;-74
2023/02/09 10:31:27;;;;;;;62.00;57.97;;;;;;;6.96;100.00;103180.84;5053423;28;20108;-75
2023/02/09 10:34:18;;;;;;;67.00;62.63;;;;;;;7.11;100.00;103197.59;5053341;28;20025;-74
2023/02/09 10:36:51;;;;;;;71.22;66.82;;;;;;;7.23;100.00;103205.78;5052577;28;20037;-74
2023/02/09 10:39:21;;;;;;;71.25;66.55;;;;;;;7.19;100.00;103210.84;5050856;28;20648;-74
2023/02/09 10:41:51;;;;;;;73.30;68.53;;;;;;;7.19;100.00;103210.03;5050238;28;20056;-74
2023/02/09 10:44:25;;;;;;;78.72;73.82;;;;;;;6.99;100.00;103223.03;5052876;28;20057;-74
2023/02/09 10:47:25;;;;;;;81.30;75.93;;;;;;;6.93;100.00;103213.91;5052893;28;20542;-75
2023/02/09 10:50:00;;;;;;;80.03;75.28;;;;;;;7.01;100.00;103216.31;5051597;28;20040;-74
2023/02/09 10:52:32;;;;;;;84.75;79.68;;;;;;;6.90;100.00;103215.19;5052824;28;20029;-74
2023/02/09 10:55:26;;;;;;;77.35;72.35;;;;;;;6.93;100.00;103219.34;5052932;28;20032;-74
2023/02/09 10:58:04;;;;;;;79.07;74.15;;;;;;;7.02;100.00;103215.25;5051344;28;20064;-73
2023/02/09 11:00:59;;;;;;;53.50;49.05;;;;;;;7.11;100.00;103208.47;5052645;28;20028;-73
2023/02/09 11:03:24;;;;;;;54.03;49.50;;;;;;;7.24;100.00;103213.69;5049792;28;20617;-73
2023/02/09 11:06:05;;;;;;;49.03;43.25;;;;;;;7.40;100.00;103214.09;5051197;28;20036;-74
2023/02/09 11:08:40;;;;;;;47.88;39.17;;;;;;;7.40;100.00;103219.53;5052539;28;20024;-73
2023/02/09 11:11:20;;;;;;;52.28;44.90;;;;;;;7.36;100.00;103230.06;5052348;28;20060;-74
2023/02/09 11:13:46;;;;;;;58.20;46.03;;;;;;;7.45;100.00;103236.00;5052469;28;20031;-73
2023/02/09 11:16:28;;;;;;;54.17;41.63;;;;;;;7.60;100.00;103243.75;5052233;28;20021;-73
2023/02/09 11:19:08;;;;;;;53.88;37.38;;;;;;;7.61;100.00;103243.50;5051087;28;20390;-73
2023/02/09 11:21:52;;;;;;;47.50;35.80;;;;;;;7.70;100.00;103244.84;5052436;28;20398;-73
2023/02/09 11:24:30;;;;;;;54.63;38.78;;;;;;;7.73;100.00;103247.13;5052313;28;20368;-73
2023/02/09 11:27:18;;;;;;;28.77;25.85;;;;;;;7.87;100.00;103247.75;5050941;28;20455;-74
2023/02/09 11:30:21;;;;;;;16.35;13.40;;;;;;;7.89;100.00;103234.72;5031789;28;20049;-74
2023/02/09 11:33:28;;;;;;;20.05;16.73;;;;;;;7.97;100.00;103231.66;5040706;28;20094;-74
2023/02/09 11:36:07;;;;;;;21.55;19.23;;;;;;;8.13;100.00;103240.19;5029914;28;20056;-73
2023/02/09 11:38:43;;;;;;;22.08;19.77;;;;;;;8.24;100.00;103231.22;5029889;28;20434;-74
2023/02/09 11:44:09;;;;;;;18.73;16.80;;;;;;;8.53;100.00;103224.81;5050475;28;20052;-74
2023/02/09 11:46:36;;;;;;;16.80;14.88;;;;;;;8.63;100.00;103224.22;5050794;28;20418;-74
2023/02/09 11:49:10;;;;;;;16.10;13.88;;;;;;;8.57;100.00;103212.38;5051994;28;20048;-75
2023/02/09 11:51:38;;;;;;;18.63;15.73;;;;;;;8.71;100.00;103218.41;5052135;28;20537;-74
2023/02/09 11:54:16;;;;;;;14.95;13.80;;;;;;;8.45;100.00;103216.16;5051963;28;20093;-74
2023/02/09 11:56:46;;;;;;;17.05;15.65;;;;;;;8.64;100.00;103205.97;5051944;28;20040;-74
2023/02/09 11:59:36;;;;;;;16.50;15.05;;;;;;;8.42;100.00;103222.09;5050583;28;20053;-74
2023/02/09 12:02:27;;;;;;;18.55;14.13;;;;;;;8.64;100.00;103216.88;5052040;28;20044;-75
2023/02/09 12:04:59;;;;;;;17.15;15.00;;;;;;;8.82;100.00;103217.53;5052091;28;20462;-74
2023/02/09 12:07:42;;;;;;;14.95;13.27;;;;;;;8.81;100.00;103207.69;5052189;28;20064;-74
2023/02/09 12:10:30;;;;;;;18.15;16.58;;;;;;;8.82;100.00;103222.97;5052069;28;20036;-74
2023/02/09 12:13:14;;;;;;;17.00;14.98;;;;;;;8.77;100.00;103222.06;5051349;28;20104;-74
2023/02/09 12:15:53;;;;;;;18.25;16.45;;;;;;;8.84;100.00;103220.88;5051960;28;20024;-74
2023/02/09 12:18:30;;;;;;;21.75;19.42;;;;;;;8.89;100.00;103212.78;5051095;28;20041;-74
2023/02/09 12:21:04;;;;;;;22.58;20.33;;;;;;;8.99;100.00;103209.41;5046244;28;20076;-74
2023/02/09 12:23:31;;;;;;;23.65;21.33;;;;;;;9.08;100.00;103208.00;5043123;28;20033;-74
2023/02/09 12:26:21;;;;;;;25.23;22.77;;;;;;;9.09;100.00;103204.19;5051895;28;20036;-74
2023/02/09 12:29:02;;;;;;;26.63;23.73;;;;;;;9.13;100.00;103190.88;5054687;28;20479;-75
2023/02/09 12:31:29;;;;;;;25.98;23.67;;;;;;;9.14;100.00;103198.84;5055718;28;20029;-75
2023/02/09 12:33:57;;;;;;;27.80;25.30;;;;;;;9.37;100.00;103195.19;5054269;28;20027;-75
2023/02/09 12:36:33;;;;;;;33.20;27.77;;;;;;;9.34;100.00;103192.09;5055158;28;20017;-74
2023/02/09 12:39:19;;;;;;;32.45;25.02;;;;;;;9.48;100.00;103195.34;5055438;28;20486;-74
2023/02/09 12:41:45;;;;;;;29.73;26.90;;;;;;;9.56;100.00;103181.28;5055088;28;20454;-75
2023/02/09 12:44:10;;;;;;;27.83;25.23;;;;;;;9.71;100.00;103192.47;5055238;28;20021;-74
2023/02/09 12:46:51;;;;;;;29.30;26.27;;;;;;;9.79;100.00;103175.69;5056309;28;20033;-74
2023/02/09 12:49:30;;;;;;;30.75;26.25;;;;;;;9.77;100.00;103172.38;5054693;28;20029;-74
2023/02/09 12:52:02;;;;;;;28.05;24.85;;;;;;;9.69;100.00;103176.34;5054548;28;20033;-74
2023/02/09 12:54:49;;;;;;;28.25;25.27;;;;;;;9.73;100.00;103179.38;5053693;28;20040;-74
2023/02/09 12:57:15;;;;;;;28.00;24.90;;;;;;;9.84;100.00;103172.22;5054697;28;20017;-74
2023/02/09 12:59:51;;;;;;;34.58;26.17;;;;;;;10.14;100.00;103177.31;5054976;28;20049;-74
2023/02/09 13:02:45;;;;;;;27.33;24.67;;;;;;;9.89;100.00;103175.81;5054641;28;20360;-75
2023/02/09 13:05:21;;;;;;;24.80;22.67;;;;;;;10.13;100.00;103178.41;5051761;28;20032;-73
2023/02/09 13:08:04;;;;;;;23.48;20.45;;;;;;;10.16;100.00;103173.25;5073001;28;20035;-74
2023/02/09 13:10:45;;;;;;;22.10;20.05;;;;;;;10.18;100.00;103181.19;5073471;28;20035;-75
2023/02/09 13:13:11;;;;;;;23.60;18.10;;;;;;;10.22;100.00;103188.69;5074633;28;20029;-74
2023/02/09 13:16:01;;;;;;;17.40;16.00;;;;;;;10.29;100.00;103191.22;5073115;28;20085;-74
2023/02/09 13:18:39;;;;;;;39.75;17.42;;;;;;;10.34;100.00;103191.28;5065395;28;20032;-74
2023/02/09 13:21:29;;;;;;;12.18;11.20;;;;;;;10.30;100.00;103190.16;5046319;28;20078;-75
2023/02/09 13:24:15;;;;;;;12.82;6.55;;;;;;;10.31;100.00;103180.88;5054460;28;20036;-75
2023/02/09 13:26:51;;;;;;;23.33;6.95;;;;;;;10.43;100.00;103178.88;5053855;28;20075;-75
2023/02/09 13:29:25;;;;;;;18.27;6.32;;;;;;;10.37;100.00;103188.06;5051767;28;20186;-75
2023/02/09 13:32:16;;;;;;;12.05;2.95;;;;;;;10.53;100.00;103186.38;5054412;28;20044;-74
2023/02/09 13:35:09;;;;;;;16.95;4.35;;;;;;;10.60;100.00;103183.44;5054288;28;20033;-75
2023/02/09 13:37:46;;;;;;;10.82;3.20;;;;;;;10.75;100.00;103179.00;5052777;28;20037;-74
2023/02/09 13:40:18;;;;;;;14.30;3.40;;;;;;;10.76;100.00;103182.56;5066253;28;20793;-75
2023/02/09 13:43:10;;;;;;;13.23;2.85;;;;;;;10.65;100.00;103175.28;5060769;28;20087;-75
2023/02/09 13:45:44;;;;;;;19.88;3.35;;;;;;;10.68;100.00;103181.09;5050748;28;20106;-75
2023/02/09 13:48:39;;;;;;;11.05;3.42;;;;;;;10.77;100.00;103184.19;5054068;28;20475;-74
2023/02/09 13:51:17;;;;;;;21.65;4.20;;;;;;;10.54;100.00;103186.09;5043914;28;20047;-74
2023/02/09 13:53:55;;;;;;;16.08;3.20;;;;;;;10.88;100.00;103182.41;5053754;28;20031;-74
2023/02/09 13:56:21;;;;;;;16.20;4.97;;;;;;;11.03;100.00;103185.31;5072680;28;20029;-74
2023/02/09 13:58:48;;;;;;;21.85;3.90;;;;;;;11.06;100.00;103179.34;5054003;28;20337;-74
2023/02/09 14:01:16;;;;;;;47.25;8.05;;;;;;;11.11;100.00;103180.25;5073527;28;20024;-75
2023/02/09 14:04:06;;;;;;;13.40;3.33;;;;;;;11.23;100.00;103179.25;5054723;28;20043;-74
2023/02/09 14:06:36;;;;;;;5.95;2.05;;;;;;;11.25;100.00;103169.69;5052311;28;20086;-75
2023/02/09 14:09:05;;;;;;;9.90;2.33;;;;;;;11.21;100.00;103160.34;5052322;28;20091;-75
2023/02/09 14:11:48;;;;;;;11.75;2.40;;;;;;;11.28;100.00;103154.69;5053709;28;20495;-75
2023/02/09 14:17:30;;;;;;;18.50;4.32;;;;;;;11.05;100.00;103170.31;5053511;28;20578;-74
2023/02/09 14:19:58;;;;;;;12.57;3.45;;;;;;;10.89;100.00;103171.22;5051707;28;20063;-75
2023/02/09 14:22:32;;;;;;;22.13;3.40;;;;;;;10.88;100.00;103160.53;5053275;28;20053;-75
2023/02/09 14:24:58;;;;;;;12.10;3.33;;;;;;;10.97;100.00;103180.91;5053390;28;20036;-75
2023/02/09 14:27:26;;;;;;;14.60;3.50;;;;;;;10.95;100.00;103177.56;5053155;28;20033;-74
2023/02/09 14:29:53;;;;;;;10.43;2.83;;;;;;;10.95;100.00;103175.66;5051637;28;20037;-75
2023/02/09 14:32:36;;;;;;;13.70;2.63;;;;;;;11.02;100.00;103179.03;5051941;28;20061;-75
2023/02/09 14:35:25;;;;;;;9.35;2.42;;;;;;;10.97;100.00;103172.69;5052008;28;20551;-74
2023/02/09 14:37:53;;;;;;;47.50;6.60;;;;;;;10.89;100.00;103179.44;5053101;28;20025;-74
2023/02/09 14:40:32;;;;;;;17.83;3.50;;;;;;;10.87;100.00;103176.13;5052810;28;20025;-74
2023/02/09 14:43:26;;;;;;;10.13;2.25;;;;;;;10.88;100.00;103176.94;5051331;28;20025;-75
2023/02/09 14:46:00;;;;;;;18.67;3.95;;;;;;;10.88;100.00;103182.41;5048607;28;20044;-74
2023/02/09 14:48:27;;;;;;;12.80;2.63;;;;;;;10.95;100.00;103178.38;5052315;28;20033;-75
2023/02/09 14:50:56;;;;;;;14.40;3.53;;;;;;;11.09;100.00;103165.97;5052620;28;20071;-75
2023/02/09 14:53:24;;;;;;;14.60;4.00;;;;;;;10.90;100.00;103161.13;5051157;28;20117;-74
2023/02/09 14:55:50;;;;;;;9.43;2.10;;;;;;;10.88;100.00;103155.06;5052897;28;20036;-75
2023/02/09 14:58:27;;;;;;;13.20;2.65;;;;;;;10.80;100.00;103170.84;5051526;28;20394;-75
2023/02/09 15:00:55;;;;;;;9.85;2.63;;;;;;;10.84;100.00;103165.69;5052417;28;20502;-74
2023/02/09 15:03:21;;;;;;;11.55;2.80;;;;;;;10.80;100.00;103178.22;5051178;28;20033;-75
2023/02/09 15:05:48;;;;;;;25.90;5.07;;;;;;;10.80;100.00;103178.22;5051303;28;20387;-75
2023/02/09 15:08:18;;;;;;;7.47;2.50;;;;;;;10.72;100.00;103186.88;5051188;28;20048;-75
2023/02/09 15:10:45;;;;;;;;;;;;;;;10.70;100.00;103192.59;5053317;28;20147;-75
2023/02/09 15:13:13;;;;;;;9.73;2.70;;;;;;;10.75;100.00;103191.84;5052417;28;19975;-74
2023/02/09 15:15:41;;;;;;;11.27;3.15;;;;;;;10.69;100.00;103203.78;5052473;28;20415;-75
2023/02/09 15:18:20;;;;;;;13.30;3.53;;;;;;;10.46;100.00;103199.38;5052666;28;20025;-75
2023/02/09 15:20:46;;;;;;;22.43;5.87;;;;;;;10.59;100.00;103200.94;5051415;28;20025;-74
2023/02/09 15:23:12;;;;;;;18.90;3.97;;;;;;;10.62;100.00;103205.88;5052428;28;20025;-75
2023/02/09 15:25:39;;;;;;;21.60;4.07;;;;;;;10.69;100.00;103206.53;5052760;28;20025;-75
2023/02/09 15:28:14;;;;;;;8.43;2.30;;;;;;;10.69;100.00;103203.78;5052484;28;20056;-75
2023/02/09 15:30:40;;;;;;;10.75;3.03;;;;;;;10.81;100.00;103205.34;5051841;28;20538;-75
2023/02/09 15:33:11;;;;;;;8.48;2.72;;;;;;;11.07;100.00;103203.72;5052618;28;20180;-75
2023/02/09 15:35:38;;;;;;;15.68;3.67;;;;;;;11.05;100.00;103192.22;5052525;28;20483;-75
2023/02/09 15:38:04;;;;;;;11.65;9.25;;;;;;;11.07;100.00;103203.72;5052328;28;20032;-74
2023/02/09 15:48:48;;;;;;;14.02;3.63;;;;;;;10.71;100.00;103207.09;5051851;28;20457;-72
2023/02/09 15:51:14;;;;;;;27.85;6.85;;;;;;;10.73;100.00;103208.50;5052246;28;20116;-73
2023/02/09 15:53:40;;;;;;;40.80;9.85;;;;;;;10.65;100.00;103208.09;5052005;28;20078;-72
2023/02/09 15:56:07;;;;;;;11.52;2.20;;;;;;;10.56;100.00;103205.81;5052097;28;20033;-71
2023/02/09 15:58:36;;;;;;;38.33;7.85;;;;;;;10.56;100.00;103211.28;5052153;28;20127;-73
2023/02/09 16:01:03;;;;;;;8.13;3.15;;;;;;;10.64;100.00;103214.66;5052044;28;20479;-71
2023/02/09 16:03:30;;;;;;;10.77;2.90;;;;;;;10.53;100.00;103217.25;5053601;28;20478;-73
2023/02/09 16:06:03;;;;;;;9.65;2.55;;;;;;;10.67;100.00;103219.63;5054488;28;20037;-71
2023/02/09 16:08:36;;;;;;;13.48;3.22;;;;;;;10.75;100.00;103225.50;5054115;28;20055;-73
2023/02/09 16:11:08;;;;;;;10.38;2.95;;;;;;;10.60;100.00;103228.03;5054077;28;20037;-71
2023/02/09 16:13:35;;;;;;;14.77;4.00;;;;;;;10.62;100.00;103225.03;5054039;28;20108;-73
2023/02/09 16:16:01;;;;;;;12.10;3.10;;;;;;;10.62;100.00;103220.38;5054077;28;20040;-72
2023/02/09 16:18:26;;;;;;;11.00;4.22;;;;;;;10.68;100.00;103224.03;5054573;28;20025;-75
2023/02/09 16:20:52;;;;;;;17.02;4.82;;;;;;;10.74;100.00;103223.84;5054377;28;20090;-71
2023/02/09 16:23:21;;;;;;;8.70;2.10;;;;;;;10.70;100.00;103219.13;5056099;28;20033;-75
2023/02/09 16:25:51;;;;;;;8.73;2.87;;;;;;;10.59;100.00;103223.63;5055845;28;20468;-71
2023/02/09 16:28:19;;;;;;;25.25;4.63;;;;;;;10.67;100.00;103234.13;5055739;28;20021;-71
2023/02/09 16:30:53;;;;;;;10.50;3.58;;;;;;;10.67;100.00;103227.84;5053951;28;20425;-71
2023/02/09 16:33:20;;;;;;;9.70;2.83;;;;;;;10.50;100.00;103200.53;5050312;28;20067;-76
2023/02/09 16:36:01;;;;;;;15.70;3.92;;;;;;;10.51;100.00;103233.09;5054840;28;20104;-76
2023/02/09 16:38:28;;;;;;;11.23;3.70;;;;;;;10.56;100.00;103240.53;5055016;28;20031;-71
2023/02/09 16:40:54;;;;;;;5.93;3.28;;;;;;;10.48;100.00;103246.44;5054826;28;20080;-76
2023/02/09 16:43:21;;;;;;;10.20;3.10;;;;;;;10.37;100.00;103250.09;5055218;28;20116;-75
2023/02/09 16:45:48;;;;;;;8.80;3.38;;;;;;;10.31;100.00;103251.91;5054765;28;20036;-76
2023/02/09 16:48:25;;;;;;;14.10;4.43;;;;;;;10.30;100.00;103254.91;5054840;28;20388;-76
2023/02/09 16:50:53;;;;;;;7.40;3.72;;;;;;;10.26;100.00;103266.31;5054633;28;20029;-75
2023/02/09 16:53:31;;;;;;;12.68;3.10;;;;;;;10.18;100.00;103268.63;5054682;28;20029;-69
2023/02/09 16:55:59;;;;;;;12.15;4.07;;;;;;;10.09;100.00;103261.91;5054545;28;20056;-73
2023/02/09 16:58:25;;;;;;;14.50;4.22;;;;;;;10.02;100.00;103267.53;5053769;28;20036;-70
2023/02/09 17:00:50;;;;;;;8.73;3.70;;;;;;;10.11;100.00;103270.69;5054926;28;20048;-73
2023/02/09 17:03:20;;;;;;;13.48;4.20;;;;;;;10.01;100.00;103269.44;5054922;28;20040;-71
2023/02/09 17:05:50;;;;;;;11.07;3.42;;;;;;;10.00;100.00;103270.53;5054855;28;20032;-75
2023/02/09 17:08:30;;;;;;;15.77;3.38;;;;;;;9.89;100.00;103276.88;5055250;28;20029;-71
2023/02/09 17:10:56;;;;;;;12.85;3.60;;;;;;;9.90;100.00;103280.44;5054217;28;20029;-75
2023/02/09 17:13:22;;;;;;;12.63;4.07;;;;;;;9.91;100.00;103284.84;5053941;28;20025;-70
2023/02/09 17:15:50;;;;;;;16.48;4.53;;;;;;;9.93;100.00;103288.16;5051444;28;20017;-71
2023/02/09 17:18:19;;;;;;;13.57;2.85;;;;;;;9.88;100.00;103280.69;5052835;28;20056;-70
2023/02/09 17:20:50;;;;;;;13.50;4.05;;;;;;;9.91;100.00;103282.94;5051121;28;20083;-71
2023/02/09 17:23:20;;;;;;;10.32;3.45;;;;;;;9.83;100.00;103285.25;5052079;28;20025;-73
2023/02/09 17:25:46;;;;;;;13.93;5.65;;;;;;;9.81;100.00;103280.00;5051260;28;20025;-73
2023/02/09 17:28:13;;;;;;;10.30;3.35;;;;;;;9.82;100.00;103276.19;5053194;28;20386;-71
2023/02/09 17:30:40;;;;;;;11.90;2.80;;;;;;;9.86;100.00;103276.56;5054506;28;20021;-71
2023/02/09 17:33:10;;;;;;;17.05;4.28;;;;;;;9.81;100.00;103269.09;5054212;28;20029;-71
2023/02/09 17:35:38;;;;;;;8.23;3.30;;;;;;;9.82;100.00;103278.94;5054552;28;20029;-75
2023/02/09 17:38:05;;;;;;;9.73;3.10;;;;;;;9.86;100.00;103271.91;5053089;28;20077;-73
2023/02/09 17:40:34;;;;;;;12.38;4.32;;;;;;;9.83;100.00;103274.31;5053922;28;20099;-73
2023/02/09 17:43:00;;;;;;;14.20;3.95;;;;;;;9.78;100.00;103280.50;5054359;28;20029;-72
2023/02/09 17:45:32;;;;;;;8.50;4.03;;;;;;;9.85;100.00;103280.38;5054076;28;20450;-72
2023/02/09 17:47:58;;;;;;;11.90;4.18;;;;;;;9.85;100.00;103296.75;5034280;28;20017;-71
2023/02/09 17:50:24;;;;;;;11.38;3.75;;;;;;;9.86;100.00;103292.94;5036195;28;20075;-72
2023/02/09 17:52:51;;;;;;;13.35;4.35;;;;;;;9.82;100.00;103292.59;5054160;28;20446;-72
2023/02/09 17:55:30;;;;;;;12.05;3.50;;;;;;;9.83;100.00;103293.44;5053570;28;20059;-72
2023/02/09 17:57:58;;;;;;;13.90;4.05;;;;;;;9.81;100.00;103290.94;5053954;28;20033;-78
2023/02/09 18:00:25;;;;;;;15.18;4.32;;;;;;;9.84;100.00;103290.47;5053877;28;20025;-73
2023/02/09 18:02:51;;;;;;;17.92;4.40;;;;;;;9.87;100.00;103300.88;5053822;28;20029;-72
2023/02/09 18:05:21;;;;;;;11.60;4.20;;;;;;;9.90;100.00;103303.13;5052626;28;20533;-72
2023/02/09 18:07:47;;;;;;;18.95;5.70;;;;;;;9.84;100.00;103315.03;5053850;28;20033;-71
2023/02/09 18:10:15;;;;;;;21.50;5.97;;;;;;;9.79;100.00;103314.94;5053784;28;20106;-72
2023/02/09 18:12:41;;;;;;;13.48;4.68;;;;;;;9.77;100.00;103321.72;5053767;28;20033;-70
2023/02/09 18:15:16;;;;;;;16.08;5.30;;;;;;;9.82;100.00;103325.34;5053763;28;20057;-71
2023/02/09 18:17:43;;;;;;;12.05;4.40;;;;;;;9.83;100.00;103326.22;5053693;28;20021;-70
2023/02/09 18:20:18;;;;;;;14.77;4.40;;;;;;;9.81;100.00;103328.34;5053851;28;20027;-71
2023/02/09 18:22:44;;;;;;;9.48;3.70;;;;;;;9.78;100.00;103323.38;5053785;28;20032;-71
2023/02/09 18:25:33;;;;;;;12.38;3.75;;;;;;;9.73;100.00;103319.47;5052952;28;20553;-75
2023/02/09 18:27:59;;;;;;;11.18;4.13;;;;;;;9.72;100.00;103320.53;5053460;28;20032;-70
2023/02/09 18:30:31;;;;;;;12.25;4.25;;;;;;;9.74;100.00;103329.31;5053480;28;20025;-76
2023/02/09 18:32:57;;;;;;;16.02;4.32;;;;;;;9.86;100.00;103315.63;5033766;28;20060;-72
2023/02/09 18:35:40;;;;;;;12.82;5.28;;;;;;;9.91;100.00;103317.63;5032007;28;20435;-69
2023/02/09 18:38:09;;;;;;;19.35;5.55;;;;;;;9.97;100.00;103313.88;5050463;28;20029;-74
2023/02/09 18:40:36;;;;;;;13.25;4.78;;;;;;;9.97;100.00;103308.41;5053582;28;20451;-71
2023/02/09 18:43:03;;;;;;;12.20;5.03;;;;;;;10.01;100.00;103320.53;5073246;28;20028;-73
2023/02/09 18:45:29;;;;;;;11.15;4.35;;;;;;;9.95;100.00;103316.88;5071832;28;20461;-71
2023/02/09 18:47:55;;;;;;;18.00;4.57;;;;;;;9.82;100.00;103319.06;5073104;28;20024;-74
2023/02/09 18:50:24;;;;;;;16.33;4.60;;;;;;;9.87;100.00;103319.16;5065621;28;20032;-71
2023/02/09 18:53:01;;;;;;;9.40;3.40;;;;;;;9.89;100.00;103315.09;5051589;28;20491;-72
2023/02/09 18:55:30;;;;;;;14.95;4.45;;;;;;;9.89;100.00;103304.19;5053044;28;20017;-71
2023/02/09 18:57:58;;;;;;;18.95;9.98;;;;;;;9.94;100.00;103312.47;5053037;28;20083;-71
2023/02/09 19:00:24;;;;;;;14.95;5.65;;;;;;;9.94;100.00;103304.28;5052842;28;20025;-71
2023/02/09 19:02:52;;;;;;;15.88;9.90;;;;;;;9.94;100.00;103306.19;5051471;28;20510;-71
2023/02/09 19:05:18;;;;;;;16.92;5.25;;;;;;;9.85;100.00;103307.66;5053172;28;20068;-83
2023/02/09 19:07:45;;;;;;;16.08;5.90;;;;;;;9.78;100.00;103307.81;5063377;28;20047;-80
2023/02/09 19:10:14;;;;;;;13.93;5.20;;;;;;;9.78;100.00;103307.00;5074356;28;20434;-70
2023/02/09 19:12:40;;;;;;;19.13;7.78;;;;;;;9.72;100.00;103309.63;5052177;28;20033;-71
2023/02/09 19:15:06;;;;;;;22.88;11.82;;;;;;;9.69;100.00;103310.13;5052140;28;20025;-75
2023/02/09 19:17:33;;;;;;;16.80;10.77;;;;;;;9.90;100.00;103296.81;5052014;28;20074;-89
2023/02/09 19:19:59;;;;;;;15.85;12.07;;;;;;;9.83;100.00;103299.72;5050474;28;20395;-77
2023/02/09 19:22:24;;;;;;;9.20;4.45;;;;;;;9.71;100.00;103301.69;5051401;28;20024;-71
2023/02/09 19:24:54;;;;;;;14.40;5.65;;;;;;;9.83;100.00;103287.97;5049636;28;20021;-71
2023/02/09 19:27:20;;;;;;;12.57;9.10;;;;;;;9.87;100.00;103289.94;5051188;28;20511;-72
2023/02/09 19:29:45;;;;;;;20.15;9.40;;;;;;;9.83;100.00;103299.72;5048342;28;20091;-72